createdAt,value
2023-01-17T00:01:46.515Z,3.42
2023-01-17T00:04:31.448Z,3.35
2023-01-17T00:07:16.221Z,3.50
2023-01-17T00:09:54.526Z,3.47
2023-01-17T00:12:21.648Z,3.22
2023-01-17T00:14:48.723Z,3.38
2023-01-17T00:17:15.889Z,3.10
2023-01-17T00:20:01.195Z,3.00
2023-01-17T00:22:48.545Z,2.67
2023-01-17T00:25:38.829Z,3.00
2023-01-17T00:28:06.175Z,2.65
2023-01-17T00:30:32.645Z,2.55
2023-01-17T00:32:59.054Z,2.80
2023-01-17T00:35:27.455Z,2.50
2023-01-17T00:38:06.521Z,2.50
2023-01-17T00:40:34.738Z,2.35
2023-01-17T00:43:20.148Z,2.30
2023-01-17T00:46:05.894Z,2.13
2023-01-17T00:48:51.797Z,2.45
2023-01-17T00:51:37.577Z,2.05
2023-01-17T00:54:23.066Z,2.50
2023-01-17T00:57:07.827Z,2.10
2023-01-17T00:59:52.751Z,2.10
2023-01-17T01:02:37.668Z,1.90
2023-01-17T01:05:23.258Z,1.70
2023-01-17T01:08:08.693Z,1.80
2023-01-17T01:10:53.276Z,1.70
2023-01-17T01:13:42.640Z,1.50
2023-01-17T01:16:27.594Z,1.40
2023-01-17T01:19:12.896Z,1.60
2023-01-17T01:21:57.792Z,1.67
2023-01-17T01:24:42.486Z,1.35
2023-01-17T01:27:27.300Z,1.50
2023-01-17T01:30:12.153Z,1.75
2023-01-17T01:32:56.924Z,1.77
2023-01-17T01:35:23.564Z,1.60
2023-01-17T01:37:49.999Z,1.75
2023-01-17T01:40:18.871Z,2.10
2023-01-17T01:42:57.827Z,1.90
2023-01-17T01:45:27.085Z,2.25
2023-01-17T01:48:07.276Z,2.17
2023-01-17T01:50:36.128Z,2.10
2023-01-17T01:53:05.426Z,2.08
2023-01-17T01:55:39.149Z,2.03
2023-01-17T01:58:14.791Z,1.90
2023-01-17T02:00:42.032Z,2.13
2023-01-17T02:03:13.897Z,1.70
2023-01-17T02:05:42.452Z,1.80
2023-01-17T02:08:11.879Z,2.00
2023-01-17T02:10:40.694Z,1.40
2023-01-17T02:13:09.189Z,1.60
2023-01-17T02:15:57.543Z,1.40
2023-01-17T02:18:55.500Z,1.20
2023-01-17T02:21:25.934Z,1.30
2023-01-17T02:24:38.081Z,1.05
2023-01-17T02:27:07.767Z,1.20
2023-01-17T02:29:52.890Z,1.17
2023-01-17T02:32:50.662Z,1.15
2023-01-17T02:35:28.577Z,0.93
2023-01-17T02:38:32.649Z,0.98
2023-01-17T02:41:05.496Z,0.90
2023-01-17T02:43:32.834Z,0.80
2023-01-17T02:45:59.230Z,0.90
2023-01-17T02:48:30.705Z,0.90
2023-01-17T02:51:12.925Z,0.70
2023-01-17T02:53:53.131Z,0.57
2023-01-17T02:56:32.601Z,0.60
2023-01-17T02:59:17.423Z,0.60
2023-01-17T03:01:46.812Z,0.60
2023-01-17T03:04:24.216Z,0.60
2023-01-17T03:07:09.444Z,0.55
2023-01-17T03:09:37.302Z,0.50
2023-01-17T03:12:04.300Z,0.50
2023-01-17T03:14:31.550Z,0.40
2023-01-17T03:16:58.142Z,0.50
2023-01-17T03:19:24.503Z,0.50
2023-01-17T03:21:50.838Z,0.70
2023-01-17T03:24:17.191Z,0.52
2023-01-17T03:26:47.801Z,0.60
2023-01-17T03:29:16.387Z,0.80
2023-01-17T03:31:42.786Z,0.60
2023-01-17T03:34:09.261Z,0.90
2023-01-17T03:36:35.683Z,0.85
2023-01-17T03:39:02.829Z,0.70
2023-01-17T03:41:29.365Z,0.70
2023-01-17T03:43:55.808Z,0.60
2023-01-17T03:46:28.489Z,0.63
2023-01-17T03:48:54.915Z,0.82
2023-01-17T03:51:21.331Z,0.47
2023-01-17T03:53:47.804Z,0.47
2023-01-17T03:56:14.520Z,0.40
2023-01-17T03:58:41.081Z,0.30
2023-01-17T04:01:07.895Z,0.40
2023-01-17T04:03:34.399Z,0.40
2023-01-17T04:06:00.806Z,0.40
2023-01-17T04:08:27.284Z,0.50
2023-01-17T04:10:53.591Z,0.40
2023-01-17T04:13:19.958Z,0.40
2023-01-17T04:15:48.928Z,0.60
2023-01-17T04:18:18.031Z,0.40
2023-01-17T04:20:44.517Z,0.50
2023-01-17T04:23:10.893Z,0.40
2023-01-17T04:25:37.409Z,0.50
2023-01-17T04:28:04.295Z,0.40
2023-01-17T04:30:32.294Z,0.55
2023-01-17T04:33:00.096Z,0.47
2023-01-17T04:35:26.742Z,0.50
2023-01-17T04:37:53.162Z,0.50
2023-01-17T04:40:19.647Z,0.45
2023-01-17T04:42:46.261Z,0.40
2023-01-17T04:45:13.473Z,0.50
2023-01-17T04:47:40.256Z,0.50
2023-01-17T04:50:07.530Z,0.52
2023-01-17T04:52:33.961Z,0.50
2023-01-17T04:55:00.411Z,0.50
2023-01-17T04:57:27.062Z,0.40
2023-01-17T04:59:53.609Z,0.50
2023-01-17T05:02:20.041Z,0.40
2023-01-17T05:04:46.383Z,0.60
2023-01-17T05:07:13.333Z,0.50
2023-01-17T05:09:39.736Z,0.50
2023-01-17T05:12:06.284Z,0.90
2023-01-17T05:14:34.226Z,0.70
2023-01-17T05:17:00.930Z,1.20
2023-01-17T05:19:27.355Z,0.80
2023-01-17T05:21:53.712Z,0.85
2023-01-17T05:24:20.423Z,0.70
2023-01-17T05:26:54.463Z,0.82
2023-01-17T05:29:21.505Z,0.93
2023-01-17T05:31:47.871Z,0.80
2023-01-17T05:34:14.294Z,1.00
2023-01-17T05:36:41.177Z,0.95
2023-01-17T05:39:07.625Z,0.77
2023-01-17T05:41:33.961Z,0.85
2023-01-17T05:44:00.399Z,0.85
2023-01-17T05:46:26.805Z,0.75
2023-01-17T05:48:53.174Z,0.80
2023-01-17T05:51:19.480Z,1.00
2023-01-17T05:53:45.890Z,0.65
2023-01-17T05:56:12.250Z,1.05
2023-01-17T05:58:39.967Z,0.85
2023-01-17T06:01:06.709Z,1.10
2023-01-17T06:03:33.053Z,0.90
2023-01-17T06:05:59.384Z,0.95
2023-01-17T06:08:25.775Z,1.13
2023-01-17T06:10:52.099Z,1.33
2023-01-17T06:13:21.765Z,1.05
2023-01-17T06:15:48.619Z,1.65
2023-01-17T06:18:16.808Z,1.50
2023-01-17T06:20:43.764Z,1.45
2023-01-17T06:23:12.735Z,1.30
2023-01-17T06:25:43.487Z,1.58
2023-01-17T06:28:11.454Z,1.40
2023-01-17T06:30:37.892Z,0.93
2023-01-17T06:33:05.046Z,1.30
2023-01-17T06:35:31.766Z,1.08
2023-01-17T06:37:59.735Z,1.30
2023-01-17T06:40:27.726Z,1.58
2023-01-17T06:42:54.215Z,1.58
2023-01-17T06:45:21.020Z,1.25
2023-01-17T06:47:47.420Z,1.20
2023-01-17T06:50:14.816Z,1.70
2023-01-17T06:52:41.953Z,1.20
2023-01-17T06:55:09.191Z,1.67
2023-01-17T06:57:35.858Z,1.42
2023-01-17T07:00:03.916Z,1.70
2023-01-17T07:02:30.310Z,1.65
2023-01-17T07:04:56.676Z,1.48
2023-01-17T07:07:23.000Z,1.48
2023-01-17T07:09:49.344Z,1.75
2023-01-17T07:12:15.672Z,1.73
2023-01-17T07:14:42.076Z,1.60
2023-01-17T07:17:08.404Z,1.80
2023-01-17T07:19:34.756Z,1.90
2023-01-17T07:22:01.139Z,1.60
2023-01-17T07:24:27.610Z,1.52
2023-01-17T07:26:53.994Z,1.85
2023-01-17T07:29:20.309Z,1.77
2023-01-17T07:31:48.524Z,1.63
2023-01-17T07:34:14.896Z,1.55
2023-01-17T07:36:41.248Z,1.92
2023-01-17T07:39:10.980Z,1.45
2023-01-17T07:41:41.261Z,2.13
2023-01-17T07:44:08.432Z,1.83
2023-01-17T07:46:34.791Z,2.58
2023-01-17T07:49:01.463Z,1.80
2023-01-17T07:51:27.839Z,1.90
2023-01-17T07:53:54.197Z,2.28
2023-01-17T07:56:20.583Z,2.03
2023-01-17T07:58:48.418Z,2.00
2023-01-17T08:01:15.497Z,2.08
2023-01-17T08:03:42.350Z,2.00
2023-01-17T08:06:22.203Z,2.55
2023-01-17T08:08:48.794Z,2.33
2023-01-17T08:11:15.259Z,2.60
2023-01-17T08:13:42.008Z,2.30
2023-01-17T08:16:10.362Z,2.83
2023-01-17T08:18:36.786Z,2.83
2023-01-17T08:21:03.835Z,3.10
2023-01-17T08:23:31.491Z,2.72
2023-01-17T08:26:01.893Z,2.60
2023-01-17T08:28:28.325Z,2.90
2023-01-17T08:30:54.698Z,2.95
2023-01-17T08:33:21.041Z,2.90
2023-01-17T08:35:54.427Z,3.13
2023-01-17T08:38:23.556Z,3.17
2023-01-17T08:40:50.904Z,3.08
2023-01-17T08:43:17.452Z,2.92
2023-01-17T08:45:48.394Z,3.05
2023-01-17T08:48:15.600Z,3.50
2023-01-17T08:50:41.968Z,3.42
2023-01-17T08:53:08.323Z,3.38
2023-01-17T08:55:39.384Z,3.63
2023-01-17T08:58:05.713Z,3.78
2023-01-17T09:00:32.534Z,4.97
2023-01-17T09:02:59.363Z,4.30
2023-01-17T09:05:25.740Z,4.18
2023-01-17T09:07:52.143Z,4.00
2023-01-17T09:10:18.794Z,4.03
2023-01-17T09:12:45.133Z,4.00
2023-01-17T09:15:14.576Z,4.28
2023-01-17T09:17:40.930Z,4.57
2023-01-17T09:20:08.173Z,3.90
2023-01-17T09:22:35.915Z,4.13
2023-01-17T09:25:02.254Z,4.38
2023-01-17T09:27:28.579Z,4.00
2023-01-17T09:29:54.931Z,4.32
2023-01-17T09:32:21.298Z,4.10
2023-01-17T09:34:47.685Z,4.22
2023-01-17T09:37:14.022Z,4.43
2023-01-17T09:39:40.328Z,4.45
2023-01-17T09:42:21.830Z,4.18
2023-01-17T09:44:52.175Z,4.10
2023-01-17T09:47:43.470Z,4.03
2023-01-17T09:50:39.395Z,4.75
2023-01-17T09:53:12.459Z,4.47
2023-01-17T09:55:54.975Z,4.03
2023-01-17T09:58:32.324Z,4.00
2023-01-17T10:01:24.189Z,3.95
2023-01-17T10:04:11.722Z,4.38
2023-01-17T10:06:44.150Z,3.92
2023-01-17T10:09:22.841Z,3.75
2023-01-17T10:12:30.696Z,3.90
2023-01-17T10:15:32.097Z,3.90
2023-01-17T10:18:04.498Z,3.78
2023-01-17T10:20:50.644Z,3.75
2023-01-17T10:25:56.289Z,3.45
2023-01-17T10:28:30.696Z,3.97
2023-01-17T10:31:25.464Z,3.95
2023-01-17T10:33:54.930Z,3.95
2023-01-17T10:36:47.182Z,4.63
2023-01-17T10:39:22.420Z,4.55
2023-01-17T10:42:02.797Z,5.13
2023-01-17T10:44:55.091Z,5.20
2023-01-17T10:47:23.712Z,4.97
2023-01-17T10:49:57.770Z,6.15
2023-01-17T10:52:34.649Z,6.00
2023-01-17T10:55:19.493Z,5.43
2023-01-17T10:57:48.544Z,5.63
2023-01-17T11:00:39.852Z,5.38
2023-01-17T11:03:06.913Z,5.43
2023-01-17T11:05:33.807Z,5.90
2023-01-17T11:08:06.312Z,5.85
2023-01-17T11:10:43.039Z,6.05
2023-01-17T11:13:26.559Z,6.07
2023-01-17T11:15:57.530Z,6.47
2023-01-17T11:18:28.103Z,5.90
2023-01-17T11:21:09.450Z,6.25
2023-01-17T11:23:36.020Z,5.95
2023-01-17T11:26:16.557Z,6.97
2023-01-17T11:28:42.933Z,6.47
2023-01-17T11:31:29.477Z,6.88
2023-01-17T11:34:23.858Z,6.65
2023-01-17T11:37:08.492Z,7.28
2023-01-17T11:39:35.163Z,7.43
2023-01-17T11:42:06.232Z,7.85
2023-01-17T11:44:35.708Z,7.97
2023-01-17T11:47:09.537Z,7.70
2023-01-17T11:49:36.239Z,8.13
2023-01-17T11:52:33.320Z,8.45
2023-01-17T11:54:59.884Z,8.07
2023-01-17T11:57:29.440Z,8.43
2023-01-17T12:00:11.862Z,7.70
2023-01-17T12:03:04.845Z,8.80
2023-01-17T12:05:48.140Z,8.70
2023-01-17T12:08:46.303Z,8.07
2023-01-17T12:12:00.719Z,8.40
2023-01-17T12:14:40.378Z,8.48
2023-01-17T12:17:42.221Z,8.43
2023-01-17T12:20:21.266Z,8.80
2023-01-17T12:23:01.549Z,8.88
2023-01-17T12:25:39.708Z,9.00
2023-01-17T12:28:27.378Z,8.88
2023-01-17T12:31:14.318Z,9.23
2023-01-17T12:33:47.343Z,8.30
2023-01-17T12:36:34.924Z,8.85
2023-01-17T12:39:05.740Z,8.75
2023-01-17T12:41:38.426Z,8.60
2023-01-17T12:44:05.371Z,8.57
2023-01-17T12:46:40.617Z,8.82
2023-01-17T12:49:41.478Z,8.40
2023-01-17T12:52:19.993Z,8.95
2023-01-17T12:54:53.150Z,9.35
2023-01-17T12:57:27.188Z,8.98
2023-01-17T13:00:03.578Z,9.23
2023-01-17T13:02:56.633Z,9.00
2023-01-17T13:05:45.855Z,9.00
2023-01-17T13:08:38.738Z,8.65
2023-01-17T13:11:14.274Z,8.45
2023-01-17T13:13:41.236Z,9.57
2023-01-17T13:16:19.856Z,8.57
2023-01-17T13:18:48.595Z,8.98
2023-01-17T13:21:23.977Z,8.77
2023-01-17T13:23:59.445Z,8.88
2023-01-17T13:26:53.772Z,7.82
2023-01-17T13:29:56.583Z,8.07
2023-01-17T13:33:01.501Z,7.63
2023-01-17T13:35:42.636Z,7.28
2023-01-17T13:38:15.634Z,7.93
2023-01-17T13:40:50.282Z,7.72
2023-01-17T13:43:28.216Z,7.07
2023-01-17T13:46:01.316Z,6.78
2023-01-17T13:48:31.113Z,7.25
2023-01-17T13:50:59.601Z,7.20
2023-01-17T13:53:28.807Z,6.95
2023-01-17T13:56:18.447Z,7.00
2023-01-17T13:58:51.655Z,6.63
2023-01-17T14:01:24.305Z,7.45
2023-01-17T14:03:53.482Z,7.10
2023-01-17T14:06:40.624Z,7.55
2023-01-17T14:09:12.772Z,7.03
2023-01-17T14:12:05.856Z,6.80
2023-01-17T14:14:41.504Z,6.68
2023-01-17T14:17:23.456Z,7.25
2023-01-17T14:20:06.463Z,6.47
2023-01-17T14:22:41.484Z,6.30
2023-01-17T14:25:20.021Z,6.72
2023-01-17T14:27:53.210Z,6.57
2023-01-17T14:30:31.822Z,6.60
2023-01-17T14:33:01.292Z,5.80
2023-01-17T14:35:30.955Z,5.65
2023-01-17T14:38:05.613Z,6.28
2023-01-17T14:40:34.110Z,7.65
2023-01-17T14:43:02.699Z,7.03
2023-01-17T14:45:32.050Z,7.60
2023-01-17T14:48:00.825Z,6.38
2023-01-17T14:50:38.317Z,6.63
2023-01-17T14:53:13.784Z,6.43
2023-01-17T14:55:52.158Z,7.75
2023-01-17T14:58:21.096Z,6.40
2023-01-17T15:00:50.067Z,7.30
2023-01-17T15:03:16.916Z,7.53
2023-01-17T15:05:46.909Z,9.13
2023-01-17T15:08:16.984Z,9.05
2023-01-17T15:11:02.905Z,9.88
2023-01-17T15:13:44.381Z,10.15
2023-01-17T15:16:28.055Z,9.75
2023-01-17T15:18:55.745Z,11.30
2023-01-17T15:21:26.334Z,9.80
2023-01-17T15:23:59.292Z,10.63
2023-01-17T15:26:28.564Z,10.38
2023-01-17T15:29:04.074Z,9.43
2023-01-17T15:31:44.467Z,9.75
2023-01-17T15:34:38.633Z,11.10
2023-01-17T15:37:23.142Z,9.52
2023-01-17T15:39:49.803Z,10.02
2023-01-17T15:42:23.717Z,10.27
2023-01-17T15:44:55.903Z,10.13
2023-01-17T15:47:32.928Z,10.55
2023-01-17T15:50:01.445Z,10.02
2023-01-17T15:52:28.884Z,10.15
2023-01-17T15:55:10.732Z,9.98
2023-01-17T15:57:38.799Z,10.05
2023-01-17T16:00:20.708Z,9.32
2023-01-17T16:02:55.236Z,9.95
2023-01-17T16:05:21.900Z,10.10
2023-01-17T16:08:18.527Z,10.30
2023-01-17T16:10:45.051Z,10.50
2023-01-17T16:13:13.521Z,10.13
2023-01-17T16:15:41.426Z,11.00
2023-01-17T16:18:16.472Z,8.88
2023-01-17T16:20:58.787Z,9.65
2023-01-17T16:23:25.770Z,9.70
2023-01-17T16:25:53.885Z,10.10
2023-01-17T16:28:20.784Z,10.55
2023-01-17T16:30:48.544Z,11.88
2023-01-17T16:33:15.734Z,11.75
2023-01-17T16:35:42.965Z,11.77
2023-01-17T16:38:15.459Z,11.65
2023-01-17T16:40:44.412Z,11.63
2023-01-17T16:43:12.129Z,13.13
2023-01-17T16:45:44.865Z,12.85
2023-01-17T16:48:14.138Z,11.77
2023-01-17T16:50:42.577Z,12.95
2023-01-17T16:53:08.921Z,12.95
2023-01-17T16:55:35.386Z,10.77
2023-01-17T16:58:01.755Z,10.43
2023-01-17T17:00:28.077Z,9.95
2023-01-17T17:02:54.948Z,9.90
2023-01-17T17:05:21.569Z,10.27
2023-01-17T17:07:50.728Z,10.18
2023-01-17T17:10:19.760Z,11.00
2023-01-17T17:12:46.651Z,12.55
2023-01-17T17:15:13.623Z,11.73
2023-01-17T17:17:41.704Z,11.85
2023-01-17T17:20:13.581Z,11.77
2023-01-17T17:22:49.125Z,11.32
2023-01-17T17:25:15.886Z,11.70
2023-01-17T17:27:42.306Z,11.57
2023-01-17T17:30:09.575Z,10.82
2023-01-17T17:32:35.910Z,11.95
2023-01-17T17:35:02.293Z,11.07
2023-01-17T17:37:29.078Z,10.48
2023-01-17T17:39:56.251Z,11.18
2023-01-17T17:42:23.166Z,10.52
2023-01-17T17:44:49.559Z,9.50
2023-01-17T17:47:16.301Z,10.35
2023-01-17T17:49:43.388Z,10.60
2023-01-17T17:52:09.852Z,10.75
2023-01-17T17:54:36.426Z,10.80
2023-01-17T17:57:03.215Z,11.60
2023-01-17T17:59:31.000Z,11.05
2023-01-17T18:01:58.686Z,11.30
2023-01-17T18:04:25.467Z,11.48
2023-01-17T18:06:56.950Z,11.73
2023-01-17T18:09:23.659Z,11.82
2023-01-17T18:11:50.047Z,11.68
2023-01-17T18:14:17.627Z,11.82
2023-01-17T18:16:44.775Z,12.55
2023-01-17T18:19:15.453Z,12.68
2023-01-17T18:21:42.156Z,12.15
2023-01-17T18:24:11.366Z,12.65
2023-01-17T18:26:50.723Z,13.05
2023-01-17T18:29:19.573Z,13.48
2023-01-17T18:31:47.297Z,14.13
2023-01-17T18:34:16.124Z,14.20
2023-01-17T18:36:43.387Z,14.10
2023-01-17T18:39:15.473Z,15.30
2023-01-17T18:41:41.854Z,15.43
2023-01-17T18:44:08.508Z,15.07
2023-01-17T18:46:35.826Z,17.80
2023-01-17T18:49:03.634Z,20.83
2023-01-17T18:51:32.613Z,22.50
2023-01-17T18:54:02.762Z,22.75
2023-01-17T18:56:31.937Z,21.02
2023-01-17T18:58:58.401Z,22.63
2023-01-17T19:01:27.516Z,22.58
2023-01-17T19:03:57.630Z,22.85
2023-01-17T19:06:30.354Z,22.60
2023-01-17T19:08:58.624Z,19.63
2023-01-17T19:11:25.339Z,20.38
2023-01-17T19:13:53.099Z,20.65
2023-01-17T19:16:25.520Z,19.30
2023-01-17T19:18:52.621Z,17.77
2023-01-17T19:21:21.616Z,17.92
2023-01-17T19:23:49.215Z,21.17
2023-01-17T19:26:17.120Z,26.73
2023-01-17T19:28:45.474Z,27.70
2023-01-17T19:31:14.731Z,25.08
2023-01-17T19:33:44.089Z,23.33
2023-01-17T19:36:17.149Z,23.83
2023-01-17T19:38:52.290Z,21.20
2023-01-17T19:41:27.234Z,21.35
2023-01-17T19:43:55.951Z,23.15
2023-01-17T19:46:26.113Z,23.90
2023-01-17T19:48:53.772Z,19.98
2023-01-17T19:51:20.678Z,20.02
2023-01-17T19:53:47.129Z,20.48
2023-01-17T19:56:16.308Z,20.08
2023-01-17T19:58:44.341Z,18.23
2023-01-17T20:01:15.007Z,20.02
2023-01-17T20:03:44.277Z,20.45
2023-01-17T20:06:12.442Z,19.95
2023-01-17T20:08:38.805Z,20.15
2023-01-17T20:11:07.398Z,20.38
2023-01-17T20:13:33.998Z,18.05
2023-01-17T20:16:05.679Z,18.98
2023-01-17T20:18:33.044Z,19.13
2023-01-17T20:21:07.318Z,19.63
2023-01-17T20:23:42.865Z,18.77
2023-01-17T20:26:14.445Z,18.13
2023-01-17T20:28:42.585Z,18.13
2023-01-17T20:31:17.075Z,17.75
2023-01-17T20:33:45.259Z,19.20
2023-01-17T20:36:14.855Z,20.88
2023-01-17T20:38:45.786Z,22.17
2023-01-17T20:41:21.270Z,22.05
2023-01-17T20:46:17.698Z,19.70
2023-01-17T20:48:49.095Z,23.23
2023-01-17T20:51:15.780Z,20.45
2023-01-17T20:53:43.411Z,19.30
2023-01-17T20:56:14.184Z,19.73
2023-01-17T20:58:40.830Z,20.05
2023-01-17T21:01:09.574Z,19.20
2023-01-17T21:03:37.550Z,18.80
2023-01-17T21:06:06.735Z,18.48
2023-01-17T21:08:37.060Z,18.15
2023-01-17T21:11:04.755Z,17.52
2023-01-17T21:13:31.665Z,18.45
2023-01-17T21:15:58.378Z,19.17
2023-01-17T21:18:26.405Z,20.95
2023-01-17T21:20:52.915Z,20.38
2023-01-17T21:23:20.082Z,17.60
2023-01-17T21:25:49.340Z,19.73
2023-01-17T21:28:15.744Z,19.48
2023-01-17T21:30:42.106Z,29.90
2023-01-17T21:33:08.506Z,24.10
2023-01-17T21:35:34.870Z,25.02
2023-01-17T21:38:01.252Z,24.05
2023-01-17T21:40:27.642Z,24.65
2023-01-17T21:42:54.108Z,28.08
2023-01-17T21:45:20.584Z,29.40
2023-01-17T21:47:49.875Z,26.23
2023-01-17T21:50:32.259Z,22.33
2023-01-17T21:52:59.462Z,26.27
2023-01-17T21:55:44.705Z,26.40
2023-01-17T21:58:31.577Z,24.63
2023-01-17T22:01:07.815Z,18.83
2023-01-17T22:03:35.670Z,19.13
2023-01-17T22:06:02.197Z,17.63
2023-01-17T22:08:37.971Z,19.15
2023-01-17T22:11:10.867Z,16.92
2023-01-17T22:13:39.214Z,16.15
2023-01-17T22:16:08.634Z,16.55
2023-01-17T22:18:37.133Z,13.63
2023-01-17T22:21:24.344Z,15.55
2023-01-17T22:23:53.343Z,16.48
2023-01-17T22:26:25.171Z,16.25
2023-01-17T22:28:52.348Z,17.05
2023-01-17T22:31:26.978Z,17.13
2023-01-17T22:33:55.889Z,17.38
2023-01-17T22:36:23.115Z,15.35
2023-01-17T22:38:50.572Z,14.85
2023-01-17T22:41:20.477Z,14.68
2023-01-17T22:43:49.501Z,14.00
2023-01-17T22:46:21.584Z,13.25
2023-01-17T22:48:48.589Z,13.15
2023-01-17T22:51:17.078Z,14.38
2023-01-17T22:53:45.781Z,12.63
2023-01-17T22:56:14.666Z,12.32
2023-01-17T22:58:44.571Z,12.38
2023-01-17T23:01:13.991Z,11.90
2023-01-17T23:03:41.618Z,13.00
2023-01-17T23:06:12.883Z,13.18
2023-01-17T23:08:41.184Z,12.40
2023-01-17T23:11:38.861Z,11.07
2023-01-17T23:14:16.956Z,11.13
2023-01-17T23:17:04.580Z,13.43
2023-01-17T23:19:36.651Z,12.90
2023-01-17T23:22:20.282Z,13.25
2023-01-17T23:24:55.686Z,12.48
2023-01-17T23:30:39.331Z,16.52
2023-01-17T23:33:17.071Z,16.20
2023-01-17T23:35:45.686Z,15.30
2023-01-17T23:38:26.061Z,13.80
2023-01-17T23:41:12.104Z,12.90
2023-01-17T23:43:38.526Z,13.55
2023-01-17T23:46:05.263Z,14.77
2023-01-17T23:48:31.936Z,14.45
2023-01-17T23:51:00.220Z,13.15
2023-01-17T23:53:27.357Z,13.98
2023-01-17T23:55:56.329Z,13.10
2023-01-17T23:58:25.529Z,13.77
